Time;durP1;ratioP1;P1;durP2;ratioP2;P2;SDS_P1;SDS_P2;PMS_P1;PMS_P2;Temp;Humidity;BMP_temperature;BMP_pressure;BME280_temperature;BME280_humidity;BME280_pressure;Samples;Min_cycle;Max_cycle;Signal;HPM_P1;HPM_P2
2023/07/24 00:00:15;;;;;;;4.23;2.90;;;20.00;99.90;;;;;;5073695;28;20250;-66
2023/07/24 00:02:40;;;;;;;2.87;2.60;;;20.10;99.90;;;;;;5066371;28;20817;-66
2023/07/24 00:05:06;;;;;;;3.93;3.50;;;20.10;99.90;;;;;;5069682;28;20226;-66
2023/07/24 00:07:32;;;;;;;2.47;2.27;;;20.10;99.90;;;;;;5073349;28;20517;-66
2023/07/24 00:09:58;;;;;;;5.00;2.43;;;20.10;99.90;;;;;;5067107;28;20423;-66
2023/07/24 00:12:23;;;;;;;3.70;3.00;;;20.10;99.90;;;;;;5073357;28;20179;-66
2023/07/24 00:14:49;;;;;;;3.00;2.70;;;20.10;99.90;;;;;;5072194;28;20301;-66
2023/07/24 00:17:14;;;;;;;3.17;2.80;;;20.10;99.90;;;;;;5072899;28;20586;-66
2023/07/24 00:19:40;;;;;;;5.10;3.30;;;19.90;99.90;;;;;;5072887;28;20559;-66
2023/07/24 00:22:06;;;;;;;3.37;2.83;;;20.00;99.90;;;;;;5069451;28;20173;-66
2023/07/24 00:24:32;;;;;;;2.80;2.40;;;20.00;99.90;;;;;;5073159;28;20177;-66
2023/07/24 00:26:57;;;;;;;3.67;2.80;;;19.90;99.90;;;;;;5065896;28;20578;-66
2023/07/24 00:29:23;;;;;;;2.97;2.40;;;19.90;99.90;;;;;;5065961;28;20465;-66
2023/07/24 00:31:49;;;;;;;5.90;3.07;;;19.90;99.90;;;;;;5070410;28;20532;-66
2023/07/24 00:34:14;;;;;;;2.80;2.60;;;19.90;99.90;;;;;;5070892;28;20164;-65
2023/07/24 00:36:40;;;;;;;5.03;2.97;;;19.90;99.90;;;;;;5073287;28;20209;-65
2023/07/24 00:39:06;;;;;;;2.30;2.10;;;19.90;99.90;;;;;;5071306;28;20179;-66
2023/07/24 00:41:32;;;;;;;2.53;2.33;;;19.90;99.90;;;;;;5072537;28;20200;-66
2023/07/24 00:43:57;;;;;;;2.70;2.40;;;19.90;99.90;;;;;;5065211;28;20408;-65
2023/07/24 00:46:24;;;;;;;5.27;2.80;;;19.80;99.90;;;;;;5070651;28;20193;-66
2023/07/24 00:48:50;;;;;;;2.80;2.50;;;19.80;99.90;;;;;;5070281;28;20172;-66
2023/07/24 00:51:16;;;;;;;3.87;3.53;;;19.80;99.90;;;;;;5070639;28;20411;-66
2023/07/24 00:53:42;;;;;;;3.63;3.17;;;19.80;99.90;;;;;;5070979;28;20440;-66
2023/07/24 00:56:09;;;;;;;3.60;2.37;;;19.80;99.90;;;;;;5067502;28;21017;-66
2023/07/24 00:58:37;;;;;;;2.87;2.40;;;19.80;99.90;;;;;;5071921;28;20173;-66
2023/07/24 01:01:03;;;;;;;6.37;2.60;;;19.80;99.90;;;;;;5064123;28;20449;-66
2023/07/24 01:03:34;;;;;;;2.77;2.17;;;19.80;99.90;;;;;;5072181;28;20498;-66
2023/07/24 01:06:02;;;;;;;5.17;2.50;;;19.70;99.90;;;;;;5064482;28;20439;-66
2023/07/24 01:08:28;;;;;;;5.33;2.90;;;19.70;99.90;;;;;;5066977;28;20441;-66
2023/07/24 01:10:58;;;;;;;3.50;2.63;;;19.70;99.90;;;;;;5069432;28;20406;-66
2023/07/24 01:13:28;;;;;;;3.57;2.83;;;19.70;99.90;;;;;;5072130;28;20210;-66
2023/07/24 01:16:18;;;;;;;3.33;2.60;;;19.60;99.90;;;;;;5068737;28;20465;-66
2023/07/24 01:18:45;;;;;;;3.77;2.80;;;19.60;99.90;;;;;;5058573;28;20827;-66
2023/07/24 01:21:13;;;;;;;3.37;2.70;;;19.60;99.90;;;;;;5067715;28;20462;-66
2023/07/24 01:23:52;;;;;;;2.83;2.60;;;19.60;99.90;;;;;;5069064;28;20429;-67
2023/07/24 01:26:19;;;;;;;3.53;2.70;;;19.60;99.90;;;;;;5071877;28;20953;-69
2023/07/24 01:28:45;;;;;;;3.70;2.40;;;19.60;99.90;;;;;;5066797;28;20422;-67
2023/07/24 01:31:11;;;;;;;2.83;2.60;;;19.60;99.90;;;;;;5067101;28;20406;-67
2023/07/24 01:33:37;;;;;;;3.30;3.00;;;19.60;99.90;;;;;;5070453;28;20440;-67
2023/07/24 01:36:05;;;;;;;2.97;2.40;;;19.60;99.90;;;;;;5067982;28;20502;-66
2023/07/24 01:38:34;;;;;;;5.10;3.23;;;19.60;99.90;;;;;;5070086;28;20413;-66
2023/07/24 01:41:00;;;;;;;3.53;2.90;;;19.60;99.90;;;;;;5066933;28;21150;-67
2023/07/24 01:43:29;;;;;;;5.07;2.70;;;19.70;99.90;;;;;;5069131;28;20872;-66
2023/07/24 01:45:54;;;;;;;3.93;2.50;;;19.70;99.90;;;;;;5071338;28;20430;-67
2023/07/24 01:48:20;;;;;;;3.13;2.80;;;19.70;99.90;;;;;;5066857;28;20484;-67
2023/07/24 01:50:46;;;;;;;2.60;2.13;;;19.70;99.90;;;;;;5071574;28;20634;-66
2023/07/24 01:53:11;;;;;;;3.30;2.17;;;19.80;99.90;;;;;;5067352;28;20174;-66
2023/07/24 01:55:37;;;;;;;3.63;2.40;;;19.80;99.90;;;;;;5069516;28;20215;-66
2023/07/24 01:58:03;;;;;;;3.70;1.80;;;19.80;99.90;;;;;;5065442;28;20178;-66
2023/07/24 02:00:28;;;;;;;3.60;2.80;;;19.80;99.90;;;;;;5068457;28;20291;-66
2023/07/24 02:02:54;;;;;;;3.80;2.33;;;19.80;99.90;;;;;;5070607;28;20647;-66
2023/07/24 02:05:20;;;;;;;4.23;2.23;;;19.80;99.90;;;;;;5065974;28;20210;-66
2023/07/24 02:07:45;;;;;;;2.10;1.77;;;19.80;99.90;;;;;;5069755;28;20669;-66
2023/07/24 02:10:11;;;;;;;3.33;3.03;;;19.80;99.90;;;;;;5066811;28;20190;-65
2023/07/24 02:12:36;;;;;;;2.93;2.30;;;19.80;99.90;;;;;;5069039;28;20181;-67
2023/07/24 02:15:02;;;;;;;3.10;2.80;;;19.80;99.90;;;;;;5065548;28;20223;-66
2023/07/24 02:17:28;;;;;;;5.57;3.00;;;19.80;99.90;;;;;;5068081;28;20178;-66
2023/07/24 02:19:54;;;;;;;2.80;2.37;;;19.80;99.90;;;;;;5070424;28;20487;-66
2023/07/24 02:22:19;;;;;;;3.30;2.87;;;19.80;99.90;;;;;;5067125;28;20181;-65
2023/07/24 02:24:45;;;;;;;4.73;2.63;;;19.80;99.90;;;;;;5069247;28;20197;-66
2023/07/24 02:27:28;;;;;;;4.43;3.03;;;19.80;99.90;;;;;;5066143;28;20607;-66
2023/07/24 02:29:54;;;;;;;3.00;2.63;;;19.80;99.90;;;;;;5068660;28;20178;-66
2023/07/24 02:32:22;;;;;;;2.97;2.37;;;19.80;99.90;;;;;;5065164;28;20427;-65
2023/07/24 02:34:51;;;;;;;4.13;2.47;;;19.80;99.90;;;;;;5064719;28;20471;-66
2023/07/24 02:37:17;;;;;;;2.23;2.00;;;19.80;99.90;;;;;;5069715;28;20476;-66
2023/07/24 02:39:42;;;;;;;2.33;2.13;;;19.80;99.90;;;;;;5069340;28;21002;-66
2023/07/24 02:42:08;;;;;;;3.33;2.83;;;19.80;99.90;;;;;;5070279;28;20176;-66
2023/07/24 02:44:35;;;;;;;4.37;2.80;;;19.80;99.90;;;;;;5070597;28;20207;-66
2023/07/24 02:47:00;;;;;;;3.50;2.43;;;19.80;99.90;;;;;;5067175;28;20181;-66
2023/07/24 02:49:26;;;;;;;2.90;2.13;;;19.80;99.90;;;;;;5071157;28;20759;-69
2023/07/24 02:51:52;;;;;;;2.67;2.10;;;19.70;99.90;;;;;;5064636;28;20314;-65
2023/07/24 02:54:17;;;;;;;2.40;2.20;;;19.80;99.90;;;;;;5069505;28;20189;-67
2023/07/24 02:56:43;;;;;;;3.80;2.47;;;19.80;99.90;;;;;;5069388;28;20244;-66
2023/07/24 02:59:08;;;;;;;4.20;2.37;;;19.80;99.90;;;;;;5062735;28;20536;-66
2023/07/24 03:01:34;;;;;;;4.40;2.93;;;19.80;99.90;;;;;;5070461;28;20212;-66
2023/07/24 03:04:00;;;;;;;2.60;2.40;;;19.80;99.90;;;;;;5066898;28;20640;-66
2023/07/24 03:06:26;;;;;;;3.10;2.47;;;19.80;99.90;;;;;;5070769;28;20315;-66
2023/07/24 03:08:51;;;;;;;4.07;2.30;;;19.90;99.90;;;;;;5064947;28;20176;-66
2023/07/24 03:11:17;;;;;;;2.63;2.20;;;19.90;99.90;;;;;;5074592;28;20426;-66
2023/07/24 03:13:43;;;;;;;3.03;2.00;;;19.90;99.90;;;;;;5067804;28;20172;-66
2023/07/24 03:16:08;;;;;;;5.00;2.80;;;19.90;99.90;;;;;;5071783;28;20205;-66
2023/07/24 03:18:34;;;;;;;2.73;2.53;;;19.90;99.90;;;;;;5074179;28;20245;-66
2023/07/24 03:20:59;;;;;;;2.23;2.03;;;19.90;99.90;;;;;;5070266;28;20200;-66
2023/07/24 03:23:26;;;;;;;2.37;2.17;;;19.90;99.90;;;;;;5074486;28;20240;-66
2023/07/24 03:25:51;;;;;;;2.17;1.97;;;19.90;99.90;;;;;;5067655;28;20206;-67
2023/07/24 03:28:17;;;;;;;2.70;1.97;;;19.90;99.90;;;;;;5074412;28;20423;-67
2023/07/24 03:30:42;;;;;;;3.50;2.50;;;19.90;99.90;;;;;;5067682;28;20216;-66
2023/07/24 03:33:08;;;;;;;4.20;2.07;;;19.90;99.90;;;;;;5069982;28;20182;-66
2023/07/24 03:35:34;;;;;;;2.37;2.17;;;19.90;99.90;;;;;;5072405;28;20297;-66
2023/07/24 03:37:59;;;;;;;3.10;2.17;;;19.90;99.90;;;;;;5070153;28;20215;-67
2023/07/24 03:40:25;;;;;;;2.93;1.97;;;19.90;99.90;;;;;;5071906;28;20286;-66
2023/07/24 03:42:51;;;;;;;1.60;1.50;;;19.90;99.90;;;;;;5076004;28;20242;-66
2023/07/24 03:45:16;;;;;;;2.60;1.83;;;20.00;99.90;;;;;;5080280;28;20195;-66
2023/07/24 03:47:42;;;;;;;2.13;1.93;;;20.00;99.90;;;;;;5072585;28;20177;-66
2023/07/24 03:50:08;;;;;;;2.97;2.00;;;19.90;99.90;;;;;;5079857;28;20189;-66
2023/07/24 03:52:34;;;;;;;1.70;1.60;;;19.90;99.90;;;;;;5072147;28;20180;-66
2023/07/24 03:54:59;;;;;;;3.07;2.30;;;19.80;99.90;;;;;;5076431;28;20464;-66
2023/07/24 03:57:25;;;;;;;2.13;1.93;;;19.80;99.90;;;;;;5082806;28;20270;-66
2023/07/24 03:59:50;;;;;;;3.37;2.10;;;19.80;99.90;;;;;;5067123;28;20248;-66
2023/07/24 04:02:16;;;;;;;2.60;1.60;;;19.80;99.90;;;;;;5075520;28;20228;-66
2023/07/24 04:04:41;;;;;;;2.40;1.90;;;19.80;99.90;;;;;;5074239;28;20195;-66
2023/07/24 04:07:07;;;;;;;2.67;2.27;;;19.80;99.90;;;;;;5078152;28;20265;-66
2023/07/24 04:09:33;;;;;;;2.07;1.97;;;19.80;99.90;;;;;;5071831;28;20583;-67
2023/07/24 04:11:58;;;;;;;2.27;1.60;;;19.80;99.90;;;;;;5076649;28;20184;-66
2023/07/24 04:14:24;;;;;;;2.17;1.93;;;19.80;99.90;;;;;;5082238;28;20184;-66
2023/07/24 04:16:49;;;;;;;2.93;2.13;;;19.80;99.90;;;;;;5071279;28;20688;-66
2023/07/24 04:19:15;;;;;;;2.90;1.93;;;19.80;99.90;;;;;;5079748;28;20205;-66
2023/07/24 04:21:41;;;;;;;2.10;1.90;;;19.70;99.90;;;;;;5073052;28;20201;-66
2023/07/24 04:24:06;;;;;;;1.73;1.63;;;19.70;99.90;;;;;;5078124;28;20654;-65
2023/07/24 04:26:32;;;;;;;2.03;1.60;;;19.80;99.90;;;;;;5070997;28;20267;-66
2023/07/24 04:28:58;;;;;;;2.53;2.00;;;19.80;99.90;;;;;;5075883;28;20303;-67
2023/07/24 04:31:23;;;;;;;1.50;1.40;;;19.80;99.90;;;;;;5081066;28;20193;-66
2023/07/24 04:33:49;;;;;;;1.73;1.63;;;19.90;99.90;;;;;;5071128;28;20175;-65
2023/07/24 04:36:14;;;;;;;2.67;2.47;;;19.90;99.90;;;;;;5071349;28;20278;-65
2023/07/24 04:38:40;;;;;;;2.10;1.90;;;20.00;99.90;;;;;;5067642;28;20184;-67
2023/07/24 04:41:06;;;;;;;1.97;1.50;;;20.00;99.90;;;;;;5070310;28;20711;-66
2023/07/24 04:43:31;;;;;;;2.67;1.70;;;20.00;99.90;;;;;;5072584;28;20190;-65
2023/07/24 04:45:57;;;;;;;2.00;1.73;;;20.00;99.90;;;;;;5069082;28;20196;-65
2023/07/24 04:48:22;;;;;;;2.67;1.80;;;20.10;99.90;;;;;;5070290;28;20184;-65
2023/07/24 04:50:57;;;;;;;2.33;1.70;;;20.20;99.90;;;;;;5068285;28;20210;-65
2023/07/24 04:53:23;;;;;;;3.00;1.80;;;20.20;99.90;;;;;;5070880;28;20181;-66
2023/07/24 04:55:49;;;;;;;1.73;1.63;;;20.20;99.90;;;;;;5066992;28;20457;-66
2023/07/24 04:58:15;;;;;;;1.63;1.50;;;20.40;99.90;;;;;;5062566;28;21012;-66
2023/07/24 05:00:40;;;;;;;2.07;1.87;;;20.50;99.90;;;;;;5070249;28;20461;-66
2023/07/24 05:03:08;;;;;;;1.93;1.67;;;20.60;99.90;;;;;;5068979;28;20257;-66
2023/07/24 05:05:34;;;;;;;3.03;1.60;;;20.60;99.90;;;;;;5072240;28;20213;-66
2023/07/24 05:08:00;;;;;;;2.87;1.40;;;20.50;99.90;;;;;;5073244;28;20917;-66
2023/07/24 05:10:25;;;;;;;2.30;1.77;;;20.70;99.90;;;;;;5077390;28;20412;-66
2023/07/24 05:12:51;;;;;;;2.10;1.70;;;20.70;99.90;;;;;;5068136;28;20189;-66
2023/07/24 05:15:17;;;;;;;3.30;1.80;;;20.70;99.90;;;;;;5082693;28;20535;-66
2023/07/24 05:17:43;;;;;;;2.07;1.77;;;20.70;99.90;;;;;;5074801;28;20277;-66
2023/07/24 05:20:09;;;;;;;1.97;1.60;;;20.90;99.90;;;;;;5078860;28;20187;-66
2023/07/24 05:22:35;;;;;;;2.10;1.70;;;21.00;99.90;;;;;;5075870;28;20423;-66
2023/07/24 05:25:01;;;;;;;1.73;1.40;;;21.20;99.90;;;;;;5073034;28;20429;-67
2023/07/24 05:27:26;;;;;;;1.67;1.57;;;21.90;99.90;;;;;;5077791;28;20170;-66
2023/07/24 05:29:52;;;;;;;3.37;1.43;;;22.50;99.90;;;;;;5071189;28;20274;-66
2023/07/24 05:32:17;;;;;;;2.70;1.80;;;22.90;99.90;;;;;;5075749;28;20189;-66
2023/07/24 05:34:43;;;;;;;4.20;2.40;;;23.40;99.90;;;;;;5065823;28;20201;-66
2023/07/24 05:37:09;;;;;;;3.97;1.77;;;23.20;99.90;;;;;;5065465;28;20174;-66
2023/07/24 05:39:35;;;;;;;3.37;1.57;;;23.20;99.90;;;;;;5065983;28;20531;-66
2023/07/24 05:42:01;;;;;;;2.57;1.77;;;23.10;99.90;;;;;;5069782;28;20416;-66
2023/07/24 05:44:26;;;;;;;2.60;1.70;;;23.20;99.90;;;;;;5073064;28;20246;-66
2023/07/24 05:46:52;;;;;;;2.33;2.00;;;23.20;99.90;;;;;;5070674;28;20166;-67
2023/07/24 05:49:17;;;;;;;3.50;2.23;;;23.00;99.90;;;;;;5070066;28;20185;-66
2023/07/24 05:51:43;;;;;;;2.10;1.60;;;22.80;99.90;;;;;;5068079;28;20262;-66
2023/07/24 05:54:09;;;;;;;2.17;1.60;;;22.70;99.90;;;;;;5073190;28;20210;-66
2023/07/24 05:56:34;;;;;;;1.70;1.50;;;22.80;99.90;;;;;;5068109;28;20612;-67
2023/07/24 05:59:00;;;;;;;2.50;1.80;;;22.80;99.90;;;;;;5075038;28;20659;-66
2023/07/24 06:01:25;;;;;;;2.73;1.60;;;23.10;99.90;;;;;;5068273;28;20239;-67
2023/07/24 06:03:52;;;;;;;2.00;1.43;;;23.10;99.90;;;;;;5043807;28;20296;-66
2023/07/24 06:06:19;;;;;;;1.63;1.30;;;23.30;99.90;;;;;;5072358;28;20530;-67
2023/07/24 06:08:45;;;;;;;2.03;1.60;;;24.60;99.90;;;;;;5064365;28;20174;-65
2023/07/24 06:11:10;;;;;;;3.00;1.40;;;24.90;99.90;;;;;;5076257;28;20446;-67
2023/07/24 06:13:36;;;;;;;2.47;1.83;;;24.70;99.90;;;;;;5061704;28;20194;-67
2023/07/24 06:16:01;;;;;;;4.20;1.90;;;24.90;99.90;;;;;;5075686;28;20201;-67
2023/07/24 06:18:27;;;;;;;4.77;1.97;;;25.30;99.90;;;;;;5073443;28;20181;-66
2023/07/24 06:20:54;;;;;;;2.27;1.50;;;25.70;99.90;;;;;;5068904;28;20202;-66
2023/07/24 06:23:19;;;;;;;2.00;1.60;;;25.60;99.90;;;;;;5064906;28;20171;-65
2023/07/24 06:25:45;;;;;;;3.70;1.47;;;26.20;99.90;;;;;;5071066;28;20439;-66
2023/07/24 06:28:11;;;;;;;1.90;1.80;;;26.50;99.90;;;;;;5075928;28;20224;-66
2023/07/24 06:30:38;;;;;;;4.13;1.80;;;26.50;99.90;;;;;;5065509;28;20235;-66
2023/07/24 06:33:04;;;;;;;2.00;1.90;;;26.50;99.90;;;;;;5069007;28;20178;-67
2023/07/24 06:35:30;;;;;;;1.80;1.50;;;26.40;99.90;;;;;;5063024;28;21086;-67
2023/07/24 06:37:55;;;;;;;1.90;1.70;;;26.40;99.90;;;;;;5055347;28;20177;-66
2023/07/24 06:40:21;;;;;;;2.50;2.17;;;26.70;99.90;;;;;;5071505;28;20612;-66
2023/07/24 06:42:47;;;;;;;3.20;1.90;;;26.90;99.90;;;;;;5068379;28;20173;-66
2023/07/24 06:45:13;;;;;;;2.90;1.77;;;27.20;99.90;;;;;;5072572;28;20203;-66
2023/07/24 06:47:38;;;;;;;2.63;1.97;;;27.50;99.90;;;;;;5079408;28;20177;-66
2023/07/24 06:50:04;;;;;;;2.30;2.10;;;27.50;99.90;;;;;;5056345;28;20178;-66
2023/07/24 06:52:31;;;;;;;1.60;1.50;;;28.00;99.90;;;;;;5073431;28;20178;-66
2023/07/24 06:54:58;;;;;;;1.63;1.53;;;27.60;99.90;;;;;;5067618;28;20456;-66
2023/07/24 06:57:24;;;;;;;2.87;2.00;;;27.80;99.90;;;;;;5076465;28;20621;-66
2023/07/24 06:59:49;;;;;;;1.80;1.70;;;28.50;99.90;;;;;;5064881;28;20546;-66
2023/07/24 07:02:15;;;;;;;1.70;1.60;;;28.80;99.90;;;;;;5067944;28;20707;-66
2023/07/24 07:04:40;;;;;;;2.50;1.50;;;28.80;99.90;;;;;;5068227;28;20246;-66
2023/07/24 07:07:06;;;;;;;1.83;1.70;;;28.80;99.90;;;;;;5066236;28;20663;-67
2023/07/24 07:09:31;;;;;;;1.60;1.50;;;28.80;99.90;;;;;;5078822;28;20162;-69
2023/07/24 07:11:57;;;;;;;4.80;1.63;;;28.80;99.90;;;;;;5066799;28;20186;-66
2023/07/24 07:14:23;;;;;;;1.50;1.33;;;28.90;99.90;;;;;;5070568;28;20550;-67
2023/07/24 07:16:49;;;;;;;1.83;1.67;;;28.50;99.90;;;;;;5085536;28;20403;-68
2023/07/24 07:19:14;;;;;;;1.80;1.70;;;28.70;99.90;;;;;;5080912;28;20186;-66
2023/07/24 07:21:40;;;;;;;1.80;1.70;;;28.90;99.90;;;;;;5074929;28;20208;-66
2023/07/24 07:24:06;;;;;;;1.90;1.80;;;29.10;99.90;;;;;;5065595;28;20179;-66
2023/07/24 07:26:31;;;;;;;3.20;2.20;;;29.20;99.90;;;;;;5081988;28;20197;-67
2023/07/24 07:28:57;;;;;;;5.73;2.00;;;30.00;99.90;;;;;;5075171;28;20177;-67
2023/07/24 07:31:23;;;;;;;2.83;1.90;;;29.30;99.90;;;;;;5074410;28;20170;-66
2023/07/24 07:33:48;;;;;;;1.77;1.60;;;29.00;99.90;;;;;;5058206;28;20186;-67
2023/07/24 07:36:14;;;;;;;2.27;2.07;;;29.80;99.90;;;;;;5066014;28;20198;-69
2023/07/24 07:38:40;;;;;;;1.83;1.73;;;29.30;99.90;;;;;;5073786;28;20192;-67
2023/07/24 07:41:06;;;;;;;1.90;1.80;;;28.80;99.90;;;;;;5070963;28;20289;-68
2023/07/24 07:43:31;;;;;;;1.73;1.63;;;29.00;99.90;;;;;;5075536;28;20170;-69
2023/07/24 07:45:58;;;;;;;2.00;1.80;;;29.60;99.90;;;;;;5069954;28;20303;-67
2023/07/24 07:48:24;;;;;;;3.00;1.70;;;29.70;99.90;;;;;;5081924;28;20177;-69
2023/07/24 07:50:52;;;;;;;2.57;2.23;;;29.70;99.90;;;;;;5073736;28;20511;-70
2023/07/24 07:53:18;;;;;;;1.70;1.60;;;29.10;99.90;;;;;;5089043;28;20182;-68
2023/07/24 07:55:43;;;;;;;3.90;2.07;;;29.20;99.90;;;;;;5070977;28;20458;-68
2023/07/24 07:58:09;;;;;;;1.73;1.63;;;29.20;99.90;;;;;;5087264;28;20310;-67
2023/07/24 08:00:35;;;;;;;1.97;1.77;;;29.90;99.90;;;;;;5086299;28;20210;-68
2023/07/24 08:03:00;;;;;;;2.80;1.90;;;29.50;99.90;;;;;;5054690;28;20174;-68
2023/07/24 08:05:26;;;;;;;2.20;1.87;;;30.00;99.90;;;;;;5077784;28;20198;-67
2023/07/24 08:07:52;;;;;;;2.20;2.00;;;29.50;99.90;;;;;;5060691;28;20308;-67
2023/07/24 08:10:17;;;;;;;1.60;1.50;;;29.30;99.90;;;;;;5067328;28;20239;-67
2023/07/24 08:12:44;;;;;;;2.27;2.07;;;29.40;99.90;;;;;;5065344;28;20268;-68
2023/07/24 08:15:10;;;;;;;2.30;2.10;;;28.80;99.90;;;;;;5075038;28;20213;-67
2023/07/24 08:17:36;;;;;;;1.80;1.50;;;29.00;99.90;;;;;;5073668;28;20420;-66
2023/07/24 08:20:02;;;;;;;1.57;1.47;;;28.90;99.90;;;;;;5086672;28;20509;-66
2023/07/24 08:22:28;;;;;;;2.03;1.83;;;28.80;99.90;;;;;;5068674;28;20170;-66
2023/07/24 08:24:54;;;;;;;2.20;2.00;;;28.70;99.90;;;;;;5075833;28;20463;-67
2023/07/24 08:27:19;;;;;;;2.20;1.87;;;28.40;99.90;;;;;;5078299;28;20182;-66
2023/07/24 08:29:45;;;;;;;2.07;1.90;;;28.60;99.90;;;;;;5073814;28;20217;-66
2023/07/24 08:32:10;;;;;;;2.23;1.90;;;29.30;99.90;;;;;;5049244;28;20704;-67
2023/07/24 08:34:36;;;;;;;2.10;2.00;;;29.30;99.90;;;;;;5072564;28;20217;-68
2023/07/24 08:37:02;;;;;;;2.23;2.03;;;29.80;99.90;;;;;;5066065;28;20188;-67
2023/07/24 08:39:27;;;;;;;2.10;2.00;;;29.10;99.90;;;;;;5065507;28;20170;-67
2023/07/24 08:41:53;;;;;;;2.30;2.10;;;29.00;99.90;;;;;;5072753;28;20206;-67
2023/07/24 08:44:20;;;;;;;1.97;1.77;;;27.90;99.90;;;;;;5073036;28;20175;-67
2023/07/24 08:46:47;;;;;;;2.37;2.10;;;28.30;99.90;;;;;;5068342;28;20229;-67
2023/07/24 08:49:13;;;;;;;2.03;1.93;;;28.00;99.90;;;;;;5067585;28;20511;-67
2023/07/24 08:51:42;;;;;;;1.87;1.77;;;27.60;99.90;;;;;;5065730;28;20424;-67
2023/07/24 08:54:09;;;;;;;1.80;1.70;;;27.70;99.90;;;;;;5062250;28;20405;-67
2023/07/24 08:56:36;;;;;;;2.00;1.80;;;27.70;99.90;;;;;;5066779;28;20509;-67
2023/07/24 08:59:02;;;;;;;2.03;1.83;;;28.30;99.90;;;;;;5075820;28;20499;-67
2023/07/24 09:01:27;;;;;;;3.67;1.73;;;28.50;99.90;;;;;;5068879;28;21041;-67
2023/07/24 09:03:53;;;;;;;2.07;1.53;;;28.00;99.90;;;;;;5073257;28;20178;-67
2023/07/24 09:06:19;;;;;;;2.63;2.10;;;28.00;99.90;;;;;;5068025;28;20660;-67
2023/07/24 09:08:44;;;;;;;1.60;1.50;;;28.10;99.90;;;;;;5070723;28;20179;-67
2023/07/24 09:11:13;;;;;;;5.07;1.70;;;28.20;99.90;;;;;;5049229;28;20181;-68
2023/07/24 09:13:42;;;;;;;1.93;1.50;;;28.80;99.90;;;;;;5061801;28;20186;-66
2023/07/24 09:16:09;;;;;;;1.67;1.57;;;28.70;99.90;;;;;;5073800;28;20440;-66
2023/07/24 09:18:44;;;;;;;1.90;1.80;;;28.40;99.90;;;;;;5046290;28;20420;-66
2023/07/24 09:21:12;;;;;;;3.10;2.13;;;28.10;99.90;;;;;;5068863;28;20518;-67
2023/07/24 09:23:40;;;;;;;2.10;1.70;;;27.70;99.90;;;;;;5070803;28;21119;-67
2023/07/24 09:26:07;;;;;;;1.67;1.57;;;28.10;99.90;;;;;;5077671;28;20436;-66
2023/07/24 09:28:33;;;;;;;2.83;1.83;;;28.90;99.90;;;;;;5069098;28;20416;-67
2023/07/24 09:31:03;;;;;;;3.03;2.00;;;28.90;99.90;;;;;;5074509;28;20918;-66
2023/07/24 09:33:37;;;;;;;2.67;1.63;;;29.00;99.90;;;;;;5067556;28;20497;-66
2023/07/24 09:36:05;;;;;;;1.53;1.43;;;29.20;99.90;;;;;;5064339;28;20428;-65
2023/07/24 09:38:30;;;;;;;2.20;1.87;;;29.30;99.90;;;;;;5066424;28;20408;-67
2023/07/24 09:40:57;;;;;;;2.93;1.63;;;29.20;99.90;;;;;;5072261;28;20525;-66
2023/07/24 09:43:25;;;;;;;1.80;1.67;;;29.10;99.90;;;;;;5066034;28;20240;-67
2023/07/24 09:45:52;;;;;;;2.50;1.87;;;29.10;99.90;;;;;;5071938;28;20473;-66
2023/07/24 09:48:19;;;;;;;2.87;1.63;;;28.90;99.90;;;;;;5053936;28;20503;-66
2023/07/24 09:50:48;;;;;;;2.20;2.00;;;29.00;99.90;;;;;;5069726;28;20420;-66
2023/07/24 09:53:19;;;;;;;1.90;1.80;;;29.00;99.90;;;;;;5040492;28;20931;-68
2023/07/24 09:55:59;;;;;;;2.20;2.00;;;28.60;99.90;;;;;;5071456;28;20546;-67
2023/07/24 09:58:25;;;;;;;2.83;2.00;;;28.90;99.90;;;;;;5069292;28;20427;-67
2023/07/24 10:00:53;;;;;;;2.10;1.80;;;28.80;99.90;;;;;;5071722;28;20463;-67
2023/07/24 10:03:20;;;;;;;1.53;1.43;;;29.30;99.90;;;;;;5061298;28;20415;-68
2023/07/24 10:05:47;;;;;;;2.00;1.90;;;29.20;99.90;;;;;;5066473;28;20767;-68
2023/07/24 10:08:14;;;;;;;3.20;1.80;;;29.30;99.90;;;;;;5051470;28;20497;-67
2023/07/24 10:10:40;;;;;;;3.47;2.80;;;29.70;99.90;;;;;;5061066;28;20421;-69
2023/07/24 10:13:10;;;;;;;1.97;1.80;;;29.40;99.90;;;;;;5064825;28;20416;-67
2023/07/24 10:15:39;;;;;;;2.93;2.73;;;29.20;99.90;;;;;;5060169;28;20285;-67
2023/07/24 10:18:09;;;;;;;2.53;2.33;;;28.90;99.90;;;;;;5071094;28;20412;-66
2023/07/24 10:20:36;;;;;;;3.17;2.30;;;28.80;99.90;;;;;;5066957;28;20862;-67
2023/07/24 10:23:02;;;;;;;3.10;2.50;;;28.10;99.90;;;;;;5059718;28;20903;-68
2023/07/24 10:25:32;;;;;;;2.63;2.20;;;28.50;99.90;;;;;;5067473;28;20428;-66
2023/07/24 10:28:10;;;;;;;3.37;3.07;;;28.80;99.90;;;;;;5065239;28;20907;-67
2023/07/24 10:30:43;;;;;;;2.77;2.57;;;28.70;99.90;;;;;;5067530;28;20423;-67
2023/07/24 10:33:17;;;;;;;2.67;2.47;;;28.80;99.90;;;;;;5068534;28;20990;-67
2023/07/24 10:35:49;;;;;;;2.73;2.53;;;29.00;99.90;;;;;;5057385;28;20599;-67
2023/07/24 10:38:17;;;;;;;5.27;3.50;;;29.00;99.90;;;;;;5063762;28;21367;-67
2023/07/24 10:40:44;;;;;;;3.20;2.87;;;28.70;99.90;;;;;;5068292;28;20454;-67
2023/07/24 10:43:12;;;;;;;3.37;3.07;;;29.00;99.90;;;;;;5068904;28;20506;-67
2023/07/24 10:45:51;;;;;;;4.30;3.03;;;29.00;99.90;;;;;;5070685;28;20428;-67
2023/07/24 10:48:18;;;;;;;3.80;3.13;;;28.90;99.50;;;;;;5070009;28;20416;-67
2023/07/24 10:50:45;;;;;;;3.00;2.80;;;28.80;99.80;;;;;;5078659;28;20423;-67
2023/07/24 10:53:15;;;;;;;3.20;2.70;;;28.80;99.30;;;;;;5064600;28;20855;-67
2023/07/24 10:55:41;;;;;;;3.27;2.97;;;28.70;99.10;;;;;;5078713;28;20459;-67
2023/07/24 10:58:08;;;;;;;3.23;2.93;;;28.60;99.50;;;;;;5068441;28;20919;-67
2023/07/24 11:00:33;;;;;;;3.30;3.00;;;28.60;99.10;;;;;;5078188;28;20500;-67
2023/07/24 11:02:59;;;;;;;3.40;3.10;;;28.50;99.50;;;;;;5067517;28;20467;-66
2023/07/24 11:05:25;;;;;;;3.77;3.47;;;28.40;99.30;;;;;;5075152;28;20197;-68
2023/07/24 11:07:51;;;;;;;3.40;3.10;;;28.80;99.60;;;;;;5072321;28;20591;-67
2023/07/24 11:10:21;;;;;;;5.90;3.17;;;29.50;99.60;;;;;;5069674;28;20235;-68
2023/07/24 11:12:47;;;;;;;5.30;3.37;;;29.00;97.70;;;;;;5063376;28;20579;-68
2023/07/24 11:15:14;;;;;;;3.77;3.30;;;29.00;97.70;;;;;;5069415;28;20857;-68
2023/07/24 11:17:41;;;;;;;3.50;3.20;;;29.30;97.70;;;;;;5077512;28;20465;-67
2023/07/24 11:20:08;;;;;;;4.63;3.70;;;29.30;97.10;;;;;;5065506;28;20480;-68
2023/07/24 11:22:34;;;;;;;4.40;3.63;;;29.20;96.60;;;;;;5076247;28;20828;-68
2023/07/24 11:25:01;;;;;;;4.20;3.80;;;28.90;97.00;;;;;;5077620;28;20432;-68
2023/07/24 11:27:27;;;;;;;6.83;3.50;;;28.90;96.60;;;;;;5066756;28;20173;-67
2023/07/24 11:29:52;;;;;;;3.83;3.43;;;28.80;96.80;;;;;;5070517;28;20859;-66
2023/07/24 11:32:21;;;;;;;3.50;2.90;;;28.20;97.30;;;;;;5076954;28;20181;-66
2023/07/24 11:34:51;;;;;;;6.00;3.53;;;28.20;97.10;;;;;;5067829;28;20230;-67
2023/07/24 11:37:18;;;;;;;3.63;3.20;;;28.40;97.30;;;;;;5073767;28;20408;-67
2023/07/24 11:39:58;;;;;;;5.90;3.47;;;28.50;97.30;;;;;;5066946;28;20396;-66
2023/07/24 11:42:27;;;;;;;4.37;3.67;;;28.50;96.80;;;;;;5069618;28;20405;-68
2023/07/24 11:44:53;;;;;;;4.20;3.60;;;28.70;96.90;;;;;;5071070;28;20440;-68
2023/07/24 11:47:19;;;;;;;4.50;3.60;;;28.70;96.90;;;;;;5072521;28;20432;-67
2023/07/24 11:49:55;;;;;;;5.37;3.83;;;28.80;96.70;;;;;;5047727;28;20416;-67
2023/07/24 11:52:21;;;;;;;5.27;3.83;;;28.60;97.10;;;;;;5072302;28;20431;-68
2023/07/24 11:55:00;;;;;;;5.07;4.20;;;28.60;97.00;;;;;;5071178;28;20460;-68
2023/07/24 11:57:27;;;;;;;6.27;3.67;;;28.90;96.90;;;;;;5070383;28;20174;-68
2023/07/24 11:59:53;;;;;;;4.77;4.27;;;28.60;97.10;;;;;;5073318;28;20404;-68
2023/07/24 12:02:19;;;;;;;4.03;3.63;;;28.60;96.90;;;;;;5065108;28;20762;-68
2023/07/24 12:04:45;;;;;;;3.90;3.40;;;28.70;96.70;;;;;;5070007;28;20466;-67
2023/07/24 12:07:10;;;;;;;4.10;3.50;;;28.40;96.90;;;;;;5064072;28;20181;-67
2023/07/24 12:09:36;;;;;;;4.10;3.70;;;28.40;97.10;;;;;;5071050;28;20174;-66
2023/07/24 12:12:05;;;;;;;6.60;3.90;;;27.90;96.80;;;;;;5069541;28;20625;-67
2023/07/24 12:14:30;;;;;;;5.87;5.27;;;27.60;96.90;;;;;;5070097;28;20603;-66
2023/07/24 12:17:01;;;;;;;4.43;4.03;;;27.50;97.40;;;;;;5073313;28;20416;-67
2023/07/24 12:19:27;;;;;;;4.70;4.00;;;27.30;97.60;;;;;;5066477;28;20187;-67
2023/07/24 12:21:53;;;;;;;9.43;4.50;;;27.20;97.80;;;;;;5071267;28;20474;-66
2023/07/24 12:24:18;;;;;;;4.23;3.63;;;26.20;99.90;;;;;;5068669;28;20184;-68
2023/07/24 12:26:44;;;;;;;4.63;2.93;;;25.60;99.90;;;;;;5064948;28;20246;-67
2023/07/24 12:29:10;;;;;;;5.07;3.80;;;25.00;99.90;;;;;;5067698;28;20262;-68
2023/07/24 12:31:35;;;;;;;7.67;4.60;;;24.70;99.90;;;;;;5072861;28;20235;-68
2023/07/24 12:34:01;;;;;;;4.10;3.50;;;24.30;99.90;;;;;;5068984;28;20423;-67
2023/07/24 12:36:27;;;;;;;3.40;2.90;;;24.00;99.90;;;;;;5071166;28;20235;-67
2023/07/24 12:38:53;;;;;;;4.23;3.83;;;24.10;99.90;;;;;;5070567;28;20561;-67
2023/07/24 12:41:19;;;;;;;4.93;4.30;;;24.30;99.90;;;;;;5064885;28;20239;-71
2023/07/24 12:43:45;;;;;;;4.07;3.67;;;24.10;99.90;;;;;;5077564;28;20807;-68